TimeCDT,TemperatureF,Dew PointF,Humidity,Sea Level PressureIn,VisibilityMPH,Wind Direction,Wind SpeedMPH,Gust SpeedMPH,PrecipitationIn,Events,Conditions,WindDirDegrees,DateUTC
12:52 AM,30.0,19.9,66,30.19,10.0,NW,8.1,-,N/A,,Clear,310,2012-10-06 05:52:00
1:52 AM,30.0,21.0,69,30.20,10.0,NW,10.4,-,N/A,,Clear,310,2012-10-06 06:52:00
2:52 AM,28.0,21.9,78,30.20,10.0,WNW,8.1,-,N/A,,Clear,290,2012-10-06 07:52:00
3:52 AM,27.0,21.9,81,30.19,10.0,WNW,9.2,-,N/A,,Clear,300,2012-10-06 08:52:00
4:52 AM,27.0,21.9,81,30.21,10.0,West,11.5,-,N/A,,Clear,270,2012-10-06 09:52:00
5:52 AM,26.1,21.9,84,30.21,10.0,WNW,10.4,-,N/A,,Clear,290,2012-10-06 10:52:00
6:52 AM,24.1,21.0,88,30.22,10.0,WNW,6.9,-,N/A,,Clear,300,2012-10-06 11:52:00
7:52 AM,26.1,23.0,88,30.24,10.0,WNW,4.6,-,N/A,,Clear,290,2012-10-06 12:52:00
8:52 AM,32.0,25.0,75,30.26,10.0,NW,16.1,-,N/A,,Clear,310,2012-10-06 13:52:00
9:52 AM,37.0,27.0,67,30.27,10.0,WNW,17.3,-,N/A,,Partly Cloudy,300,2012-10-06 14:52:00
10:24 AM,37.4,26.6,65,30.24,10.0,NNW,12.7,21.9,N/A,,Mostly Cloudy,340,2012-10-06 15:24:00
10:52 AM,39.0,27.0,62,30.27,10.0,NNW,16.1,-,N/A,,Overcast,340,2012-10-06 15:52:00
11:32 AM,39.2,26.6,61,30.23,10.0,NNW,15.0,-,N/A,,Overcast,330,2012-10-06 16:32:00
11:52 AM,39.9,27.0,60,30.26,10.0,NNW,15.0,20.7,N/A,,Overcast,330,2012-10-06 16:52:00
12:52 PM,42.1,27.0,55,30.25,10.0,NNW,16.1,20.7,N/A,,Overcast,330,2012-10-06 17:52:00
1:52 PM,41.0,26.1,55,30.25,10.0,NW,12.7,-,N/A,,Overcast,310,2012-10-06 18:52:00
2:52 PM,41.0,26.1,55,30.25,10.0,NW,12.7,-,N/A,,Overcast,310,2012-10-06 19:52:00
3:52 PM,41.0,25.0,53,30.25,10.0,WNW,13.8,-,N/A,,Overcast,300,2012-10-06 20:52:00
4:52 PM,41.0,25.0,53,30.25,10.0,NW,11.5,-,N/A,,Overcast,310,2012-10-06 21:52:00
5:52 PM,41.0,25.0,53,30.24,10.0,NW,10.4,-,N/A,,Overcast,320,2012-10-06 22:52:00
6:52 PM,39.9,26.1,58,30.25,10.0,NNW,10.4,-,N/A,,Overcast,340,2012-10-06 23:52:00
7:52 PM,39.0,25.0,57,30.25,10.0,NNW,6.9,-,N/A,,Overcast,330,2012-10-07 00:52:00
8:52 PM,37.9,26.1,62,30.26,10.0,NW,4.6,-,N/A,,Overcast,320,2012-10-07 01:52:00
9:52 PM,37.9,26.1,62,30.27,10.0,NW,3.5,-,N/A,,Overcast,310,2012-10-07 02:52:00
10:52 PM,37.0,26.1,65,30.27,10.0,NW,4.6,-,N/A,,Overcast,310,2012-10-07 03:52:00
11:52 PM,36.0,26.1,67,30.26,10.0,NW,4.6,-,N/A,,Overcast,320,2012-10-07 04:52:00